Terminal Aerodrome Forecast
Issued by NWS

Home | Current Version | Previous Version | Text Only | Print | Product List | Glossary On
Versions: 1 2 3 4 5 6 7 8 9 10 11 12 13
000
FTUS46 KSGX 300520
TAFONT
TAF
KONT 300520Z 3006/3112 VRB04KT P6SM FEW250
     FM301200 VRB03KT 5SM BR VCFG SCT005
     FM301500 VRB03KT 6SM HZ FEW250
     FM301800 VRB06KT P6SM FEW250
     FM302100 26012KT P6SM SKC
     FM310400 VRB05KT P6SM SKC=

USA.gov is the U.S. government's official web portal to all federal, state and local government web resources and services.